Time;durP1;ratioP1;P1;durP2;ratioP2;P2;SDS_P1;SDS_P2;PMS_P1;PMS_P2;Temp;Humidity;BMP_temperature;BMP_pressure;BME280_temperature;BME280_humidity;BME280_pressure;Samples;Min_cycle;Max_cycle;Signal;HPM_P1;HPM_P2
2023/07/11 00:02:53;;;;;;;13.98;7.18;;;;;;;;;;20926543;28;20049;-73
2023/07/11 00:12:54;;;;;;;12.60;4.53;;;;;;;;;;20924044;28;20041;-73
2023/07/11 00:22:55;;;;;;;8.60;4.30;;;;;;;;;;20923280;28;20041;-73
2023/07/11 00:32:57;;;;;;;7.72;4.13;;;;;;;;;;20924198;28;20045;-73
2023/07/11 00:43:01;;;;;;;8.60;4.00;;;;;;;;;;20922329;28;20048;-73
2023/07/11 00:53:02;;;;;;;11.03;3.87;;;;;;;;;;20922625;28;20091;-73
2023/07/11 01:03:03;;;;;;;7.10;3.63;;;;;;;;;;20919940;28;20045;-73
2023/07/11 01:13:05;;;;;;;11.68;4.03;;;;;;;;;;20920844;28;20103;-73
2023/07/11 01:23:06;;;;;;;6.43;3.72;;;;;;;;;;20918753;28;20041;-73
2023/07/11 01:33:07;;;;;;;11.57;4.80;;;;;;;;;;20917370;28;20045;-73
2023/07/11 01:43:08;;;;;;;6.40;3.42;;;;;;;;;;20916920;28;20128;-73
2023/07/11 01:53:10;;;;;;;9.93;3.95;;;;;;;;;;20917549;28;20192;-74
2023/07/11 02:03:11;;;;;;;14.77;3.55;;;;;;;;;;20916670;28;20041;-73
2023/07/11 02:13:12;;;;;;;13.82;3.78;;;;;;;;;;20916019;28;20049;-73
2023/07/11 02:23:13;;;;;;;10.27;3.70;;;;;;;;;;20914795;28;20406;-73
2023/07/11 02:33:15;;;;;;;12.02;3.70;;;;;;;;;;20914813;28;20517;-73
2023/07/11 02:43:16;;;;;;;10.02;2.92;;;;;;;;;;20912357;28;20079;-73
2023/07/11 02:53:17;;;;;;;6.63;3.13;;;;;;;;;;20914197;28;20056;-73
2023/07/11 03:03:18;;;;;;;6.50;3.05;;;;;;;;;;20913696;28;20549;-73
2023/07/11 03:13:20;;;;;;;7.18;3.00;;;;;;;;;;20913961;28;20517;-73
2023/07/11 03:23:21;;;;;;;7.53;3.42;;;;;;;;;;20912559;28;20565;-73
2023/07/11 03:33:22;;;;;;;10.32;3.70;;;;;;;;;;20913498;28;20410;-73
2023/07/11 03:43:23;;;;;;;8.30;4.05;;;;;;;;;;20912150;28;20160;-74
2023/07/11 03:53:24;;;;;;;10.48;3.15;;;;;;;;;;20920424;28;20056;-73
2023/07/11 04:03:26;;;;;;;6.28;3.00;;;;;;;;;;20927260;28;20075;-73
2023/07/11 04:13:27;;;;;;;8.25;3.40;;;;;;;;;;20926282;28;20379;-73
2023/07/11 04:23:28;;;;;;;7.35;3.22;;;;;;;;;;20924652;28;20060;-73
2023/07/11 04:33:29;;;;;;;10.82;4.18;;;;;;;;;;20924633;28;20056;-73
2023/07/11 04:43:31;;;;;;;10.50;3.10;;;;;;;;;;20922586;28;20045;-72
2023/07/11 04:53:33;;;;;;;5.97;3.03;;;;;;;;;;20923062;28;20091;-73
2023/07/11 05:03:34;;;;;;;6.60;3.30;;;;;;;;;;20919920;28;20117;-73
2023/07/11 05:13:35;;;;;;;10.30;3.00;;;;;;;;;;20921659;28;20037;-73
2023/07/11 05:23:37;;;;;;;11.55;3.67;;;;;;;;;;20920942;28;20386;-74
2023/07/11 05:33:38;;;;;;;7.88;3.47;;;;;;;;;;20919728;28;20059;-74
2023/07/11 05:43:39;;;;;;;7.22;3.53;;;;;;;;;;20919213;28;20513;-74
2023/07/11 05:53:40;;;;;;;11.82;3.90;;;;;;;;;;20918389;28;20044;-70
2023/07/11 06:03:45;;;;;;;15.10;3.75;;;;;;;;;;20917251;28;20557;-71
2023/07/11 06:13:46;;;;;;;10.55;4.25;;;;;;;;;;20916542;28;20053;-71
2023/07/11 06:23:47;;;;;;;8.13;3.42;;;;;;;;;;20914759;28;20060;-69
2023/07/11 06:33:50;;;;;;;11.98;3.90;;;;;;;;;;20915315;28;20457;-70
2023/07/11 06:43:51;;;;;;;13.10;4.43;;;;;;;;;;20914465;28;20052;-70
2023/07/11 06:53:52;;;;;;;15.02;3.83;;;;;;;;;;20913813;28;20067;-71
2023/07/11 07:03:53;;;;;;;12.48;4.28;;;;;;;;;;20912044;28;20048;-70
2023/07/11 07:13:54;;;;;;;17.38;5.18;;;;;;;;;;20911726;28;20049;-71
2023/07/11 07:23:55;;;;;;;14.75;4.18;;;;;;;;;;20913564;28;20085;-71
2023/07/11 07:33:56;;;;;;;14.48;4.30;;;;;;;;;;20928842;28;20049;-70
2023/07/11 07:43:58;;;;;;;22.15;4.55;;;;;;;;;;20928002;28;20128;-71
2023/07/11 07:53:59;;;;;;;13.55;4.28;;;;;;;;;;20926988;28;20113;-71
2023/07/11 08:04:00;;;;;;;23.30;5.15;;;;;;;;;;20926466;28;20124;-70
2023/07/11 08:14:01;;;;;;;16.17;5.32;;;;;;;;;;20925394;28;20429;-71
2023/07/11 08:24:02;;;;;;;17.02;4.75;;;;;;;;;;20922826;28;20048;-71
2023/07/11 08:34:03;;;;;;;25.30;4.90;;;;;;;;;;20922628;28;20041;-70
2023/07/11 08:44:06;;;;;;;17.25;4.50;;;;;;;;;;20921553;28;20113;-71
2023/07/11 08:54:14;;;;;;;19.98;4.72;;;;;;;;;;20922256;28;20078;-71
2023/07/11 09:04:17;;;;;;;10.27;3.55;;;;;;;;;;20921681;28;20080;-71
2023/07/11 09:14:36;;;;;;;15.00;4.30;;;;;;;;;;20920493;28;20399;-71
2023/07/11 09:25:07;;;;;;;12.15;3.88;;;;;;;;;;20921078;28;20049;-71
2023/07/11 09:35:29;;;;;;;10.63;3.28;;;;;;;;;;20913742;28;20053;-71
2023/07/11 09:45:35;;;;;;;10.35;3.35;;;;;;;;;;20917511;28;20130;-71
2023/07/11 09:55:37;;;;;;;4.50;2.85;;;;;;;;;;20917871;28;20041;-71
2023/07/11 10:05:43;;;;;;;11.50;3.97;;;;;;;;;;20917611;28;20072;-70
2023/07/11 10:15:47;;;;;;;9.60;3.67;;;;;;;;;;20916573;28;20084;-70
2023/07/11 10:25:48;;;;;;;;;;;;;;;;;;20914671;28;20049;-70
2023/07/11 10:35:53;;;;;;;10.52;3.53;;;;;;;;;;20914812;28;20396;-71
2023/07/11 10:46:14;;;;;;;8.95;3.28;;;;;;;;;;20914542;28;20045;-71
2023/07/11 10:56:25;;;;;;;7.18;3.10;;;;;;;;;;20909416;28;20121;-71
2023/07/11 11:06:26;;;;;;;12.63;3.13;;;;;;;;;;20912387;28;20052;-71
2023/07/11 11:16:37;;;;;;;10.18;3.95;;;;;;;;;;20911845;28;20057;-70
2023/07/11 11:26:57;;;;;;;8.40;3.00;;;;;;;;;;20911840;28;20130;-71
2023/07/11 11:37:16;;;;;;;9.43;3.30;;;;;;;;;;20912464;28;20041;-71
2023/07/11 11:47:19;;;;;;;10.57;3.20;;;;;;;;;;20912076;28;20045;-71
2023/07/11 11:57:23;;;;;;;6.35;2.75;;;;;;;;;;20911695;28;20049;-71
2023/07/11 12:07:25;;;;;;;;;;;;;;;;;;20911542;28;20049;-71
2023/07/11 12:17:46;;;;;;;7.30;2.95;;;;;;;;;;20923354;28;19921;-71
2023/07/11 12:27:53;;;;;;;7.50;3.13;;;;;;;;;;20927755;28;20136;-72
2023/07/11 12:38:00;;;;;;;6.68;2.65;;;;;;;;;;20925380;28;20487;-71
2023/07/11 12:48:05;;;;;;;6.72;2.75;;;;;;;;;;20922230;28;20060;-71
2023/07/11 12:58:06;;;;;;;5.22;2.45;;;;;;;;;;20922505;28;20487;-72
2023/07/11 13:08:12;;;;;;;5.72;2.65;;;;;;;;;;20921943;28;20051;-70
2023/07/11 13:18:32;;;;;;;6.22;2.28;;;;;;;;;;20921286;28;20068;-71
2023/07/11 13:28:38;;;;;;;5.82;2.40;;;;;;;;;;20932604;28;20060;-72
2023/07/11 13:38:40;;;;;;;10.27;4.07;;;;;;;;;;20944213;28;20095;-72
2023/07/11 13:48:45;;;;;;;7.68;2.60;;;;;;;;;;20916392;28;20080;-72
2023/07/11 13:58:46;;;;;;;5.40;2.67;;;;;;;;;;20916857;28;20037;-71
2023/07/11 14:08:47;;;;;;;6.07;2.47;;;;;;;;;;20915895;28;20060;-71
2023/07/11 14:18:49;;;;;;;7.45;2.83;;;;;;;;;;20915497;28;20398;-71
2023/07/11 14:28:51;;;;;;;3.70;2.60;;;;;;;;;;20914225;28;20088;-72
2023/07/11 14:38:52;;;;;;;6.03;2.83;;;;;;;;;;20913697;28;20098;-72
2023/07/11 14:48:53;;;;;;;6.68;2.80;;;;;;;;;;20914760;28;20048;-70
2023/07/11 14:58:58;;;;;;;4.63;2.60;;;;;;;;;;20913796;28;20045;-71
2023/07/11 15:08:59;;;;;;;4.40;2.60;;;;;;;;;;20912569;28;20091;-71
2023/07/11 15:19:00;;;;;;;5.60;3.20;;;;;;;;;;20912213;28;20045;-71
2023/07/11 15:29:01;;;;;;;7.47;3.25;;;;;;;;;;20910819;28;20053;-72
2023/07/11 15:39:03;;;;;;;14.95;3.50;;;;;;;;;;20911351;28;20454;-59
2023/07/11 15:49:11;;;;;;;5.47;2.95;;;;;;;;;;20918696;28;20068;-68
2023/07/11 15:59:13;;;;;;;5.40;3.00;;;;;;;;;;20927677;28;20402;-61
2023/07/11 16:09:16;;;;;;;13.55;3.20;;;;;;;;;;20926472;28;20045;-63
2023/07/11 16:19:18;;;;;;;9.03;2.83;;;;;;;;;;20924645;28;20044;-64
2023/07/11 16:29:24;;;;;;;4.28;2.85;;;;;;;;;;20922140;28;20057;-60
2023/07/11 16:39:30;;;;;;;4.95;3.05;;;;;;;;;;20922579;28;20049;-59
2023/07/11 16:49:31;;;;;;;5.35;3.47;;;;;;;;;;20922011;28;20532;-58
2023/07/11 16:59:35;;;;;;;4.97;3.63;;;;;;;;;;20919516;28;20037;-60
2023/07/11 17:09:36;;;;;;;3.63;3.13;;;;;;;;;;20920479;28;20037;-60
2023/07/11 17:19:37;;;;;;;5.40;3.40;;;;;;;;;;20919892;28;20147;-59
2023/07/11 17:29:39;;;;;;;6.25;3.15;;;;;;;;;;20920552;28;20128;-63
2023/07/11 17:39:40;;;;;;;3.20;2.55;;;;;;;;;;20920549;28;20060;-71
2023/07/11 17:49:41;;;;;;;6.10;3.15;;;;;;;;;;20919523;28;20088;-70
2023/07/11 17:59:43;;;;;;;3.47;3.00;;;;;;;;;;20917766;28;20056;-71
2023/07/11 18:09:45;;;;;;;5.88;3.42;;;;;;;;;;20916470;28;20049;-72
2023/07/11 18:19:47;;;;;;;4.55;2.70;;;;;;;;;;20913839;28;20053;-72
2023/07/11 18:29:48;;;;;;;8.52;4.13;;;;;;;;;;20913097;28;20045;-70
2023/07/11 18:39:50;;;;;;;5.20;2.65;;;;;;;;;;20912131;28;20056;-71
2023/07/11 18:49:52;;;;;;;4.40;2.17;;;;;;;;;;20911912;28;20075;-71
2023/07/11 18:59:55;;;;;;;4.43;2.17;;;;;;;;;;20912329;28;20045;-69
2023/07/11 19:09:58;;;;;;;5.53;2.08;;;;;;;;;;20912807;28;20041;-72
2023/07/11 19:19:59;;;;;;;4.07;2.20;;;;;;;;;;20914024;28;20179;-72
2023/07/11 19:30:01;;;;;;;3.15;2.03;;;;;;;;;;20929076;28;20075;-71
2023/07/11 19:40:02;;;;;;;3.97;2.40;;;;;;;;;;20928527;28;20048;-71
2023/07/11 19:50:11;;;;;;;3.38;1.80;;;;;;;;;;20928413;28;20378;-71
2023/07/11 20:00:21;;;;;;;3.45;2.17;;;;;;;;;;20927606;28;20456;-71
2023/07/11 20:10:44;;;;;;;3.97;2.95;;;;;;;;;;20924909;28;20044;-73
2023/07/11 20:20:45;;;;;;;3.97;2.45;;;;;;;;;;20925547;28;20157;-71
2023/07/11 20:30:47;;;;;;;4.43;2.65;;;;;;;;;;20924316;28;20498;-72
2023/07/11 20:40:49;;;;;;;5.68;2.50;;;;;;;;;;20922887;28;20045;-72
2023/07/11 20:50:51;;;;;;;5.65;2.72;;;;;;;;;;20923489;28;20056;-73
2023/07/11 21:00:54;;;;;;;4.38;2.80;;;;;;;;;;20922754;28;20045;-73
2023/07/11 21:10:56;;;;;;;6.75;3.33;;;;;;;;;;20921957;28;20451;-72
2023/07/11 21:20:57;;;;;;;3.05;2.67;;;;;;;;;;20920526;28;20406;-73
2023/07/11 21:31:02;;;;;;;6.75;4.25;;;;;;;;;;20920103;28;20525;-73
2023/07/11 21:41:03;;;;;;;4.82;3.70;;;;;;;;;;20919119;28;20049;-72
2023/07/11 21:51:04;;;;;;;5.22;3.55;;;;;;;;;;20917617;28;20103;-74
2023/07/11 22:01:06;;;;;;;4.30;3.28;;;;;;;;;;20917299;28;20390;-73
2023/07/11 22:11:09;;;;;;;5.40;3.20;;;;;;;;;;20916546;28;20072;-73
2023/07/11 22:21:14;;;;;;;5.15;3.80;;;;;;;;;;20915101;28;20068;-72
2023/07/11 22:31:15;;;;;;;4.72;3.50;;;;;;;;;;20914959;28;20048;-73
2023/07/11 22:41:16;;;;;;;8.18;3.42;;;;;;;;;;20914451;28;20045;-72
2023/07/11 22:51:18;;;;;;;4.60;3.30;;;;;;;;;;20914193;28;20045;-72
2023/07/11 23:01:20;;;;;;;6.47;3.58;;;;;;;;;;20913577;28;20045;-72
2023/07/11 23:11:22;;;;;;;8.73;3.42;;;;;;;;;;20913135;28;20037;-72
2023/07/11 23:21:23;;;;;;;5.07;4.07;;;;;;;;;;20912475;28;20057;-72
2023/07/11 23:31:25;;;;;;;5.10;3.45;;;;;;;;;;20911041;28;20147;-71
2023/07/11 23:41:26;;;;;;;7.15;3.85;;;;;;;;;;20912075;28;20449;-71
2023/07/11 23:51:28;;;;;;;6.43;4.45;;;;;;;;;;20910396;28;20056;-72
